createdAt,value
2022-12-18T00:01:21.440Z,102644.34
2022-12-18T00:03:48.824Z,102633.22
2022-12-18T00:06:16.009Z,102632.59
2022-12-18T00:08:43.311Z,102635.09
2022-12-18T00:11:13.751Z,102633.53
2022-12-18T00:13:41.312Z,102639.75
2022-12-18T00:16:11.264Z,102628.03
2022-12-18T00:18:38.434Z,102621.47
2022-12-18T00:21:07.883Z,102619.09
2022-12-18T00:23:36.768Z,102618.34
2022-12-18T00:26:13.056Z,102609.13
2022-12-18T00:28:39.760Z,102604.84
2022-12-18T00:31:12.188Z,102599.81
2022-12-18T00:33:39.209Z,102599.06
2022-12-18T00:36:21.617Z,102599.06
2022-12-18T00:38:48.949Z,102599.31
2022-12-18T00:41:39.537Z,102603.69
2022-12-18T00:44:10.235Z,102613.25
2022-12-18T00:46:37.013Z,102594.00
2022-12-18T00:49:04.032Z,102588.19
2022-12-18T00:51:30.919Z,102599.28
2022-12-18T00:53:57.566Z,102600.19
2022-12-18T00:56:24.796Z,102602.66
2022-12-18T00:58:53.502Z,102597.41
2022-12-18T01:01:20.844Z,102599.22
2022-12-18T01:03:47.874Z,102596.75
2022-12-18T01:06:16.851Z,102605.28
2022-12-18T01:08:44.111Z,102605.38
2022-12-18T01:11:16.039Z,102612.88
2022-12-18T01:13:43.427Z,102615.38
2022-12-18T01:16:13.395Z,102612.91
2022-12-18T01:18:40.488Z,102609.66
2022-12-18T01:21:09.053Z,102615.63
2022-12-18T01:23:38.134Z,102619.16
2022-12-18T01:26:07.300Z,102615.78
2022-12-18T01:28:36.231Z,102613.13
2022-12-18T01:31:19.172Z,102613.94
2022-12-18T01:33:47.040Z,102609.75
2022-12-18T01:36:29.854Z,102609.75
2022-12-18T01:38:57.529Z,102603.84
2022-12-18T01:41:27.273Z,102611.53
2022-12-18T01:43:58.361Z,102613.41
2022-12-18T01:46:26.669Z,102599.16
2022-12-18T01:49:02.483Z,102589.91
2022-12-18T01:51:31.460Z,102606.78
2022-12-18T01:54:00.195Z,102609.31
2022-12-18T01:56:26.942Z,102603.56
2022-12-18T01:59:04.786Z,102602.78
2022-12-18T02:01:33.806Z,102598.59
2022-12-18T02:04:20.429Z,102601.88
2022-12-18T02:06:52.118Z,102603.56
2022-12-18T02:09:25.151Z,102611.09
2022-12-18T02:12:07.031Z,102608.53
2022-12-18T02:14:50.659Z,102602.91
2022-12-18T02:17:21.799Z,102607.25
2022-12-18T02:20:00.723Z,102606.38
2022-12-18T02:22:51.492Z,102602.97
2022-12-18T02:25:41.351Z,102590.41
2022-12-18T02:28:14.434Z,102586.34
2022-12-18T02:30:43.582Z,102585.59
2022-12-18T02:33:13.321Z,102580.38
2022-12-18T02:35:42.789Z,102585.31
2022-12-18T02:38:10.379Z,102583.81
2022-12-18T02:40:39.746Z,102580.50
2022-12-18T02:43:12.992Z,102578.81
2022-12-18T02:45:55.278Z,102578.72
2022-12-18T02:48:32.213Z,102562.69
2022-12-18T02:51:30.437Z,102565.25
2022-12-18T02:54:18.783Z,102567.91
2022-12-18T02:56:53.016Z,102571.94
2022-12-18T02:59:24.423Z,102574.66
2022-12-18T03:02:18.830Z,102571.09
2022-12-18T03:04:54.939Z,102563.56
2022-12-18T03:07:37.832Z,102551.78
2022-12-18T03:10:12.567Z,102551.69
2022-12-18T03:12:44.847Z,102548.41
2022-12-18T03:15:24.296Z,102537.44
2022-12-18T03:18:05.346Z,102545.31
2022-12-18T03:20:37.798Z,102549.78
2022-12-18T03:23:12.536Z,102555.72
2022-12-18T03:25:45.509Z,102558.25
2022-12-18T03:28:20.646Z,102564.19
2022-12-18T03:31:00.047Z,102563.44
2022-12-18T03:33:31.843Z,102568.56
2022-12-18T03:35:58.684Z,102557.50
2022-12-18T03:38:25.723Z,102559.16
2022-12-18T03:41:04.122Z,102545.81
2022-12-18T03:44:01.247Z,102545.81
2022-12-18T03:46:34.619Z,102538.31
2022-12-18T03:49:13.849Z,102526.50
2022-12-18T03:52:07.131Z,102528.09
2022-12-18T03:54:36.291Z,102521.19
2022-12-18T03:57:31.325Z,102530.59
2022-12-18T04:00:19.727Z,102518.91
2022-12-18T04:03:00.213Z,102511.28
2022-12-18T04:05:36.508Z,102506.16
2022-12-18T04:08:04.073Z,102503.66
2022-12-18T04:10:37.555Z,102501.16
2022-12-18T04:13:04.206Z,102498.72
2022-12-18T04:15:32.754Z,102496.38
2022-12-18T04:18:00.152Z,102497.09
2022-12-18T04:20:35.819Z,102507.13
2022-12-18T04:23:03.879Z,102512.19
2022-12-18T04:25:30.744Z,102521.41
2022-12-18T04:28:10.861Z,102512.03
2022-12-18T04:30:39.501Z,102518.84
2022-12-18T04:33:17.762Z,102524.81
2022-12-18T04:35:44.601Z,102534.09
2022-12-18T04:38:11.235Z,102534.88
2022-12-18T04:40:39.036Z,102537.56
2022-12-18T04:43:12.126Z,102530.88
2022-12-18T04:45:39.040Z,102524.16
2022-12-18T04:48:07.495Z,102525.72
2022-12-18T04:50:34.165Z,102534.84
2022-12-18T04:53:00.830Z,102533.13
2022-12-18T04:55:28.220Z,102537.34
2022-12-18T04:57:57.371Z,102532.38
2022-12-18T05:00:23.874Z,102526.44
2022-12-18T05:02:50.527Z,102521.31
2022-12-18T05:05:17.402Z,102523.97
2022-12-18T05:07:44.254Z,102539.28
2022-12-18T05:10:11.096Z,102535.94
2022-12-18T05:13:00.987Z,102537.66
2022-12-18T05:15:33.441Z,102538.47
2022-12-18T05:18:04.658Z,102541.09
2022-12-18T05:20:31.467Z,102545.22
2022-12-18T05:22:58.418Z,102539.31
2022-12-18T05:25:25.613Z,102533.53
2022-12-18T05:27:52.165Z,102530.31
2022-12-18T05:30:18.872Z,102529.44
2022-12-18T05:32:45.414Z,102528.50
2022-12-18T05:35:12.345Z,102527.56
2022-12-18T05:37:43.026Z,102529.19
2022-12-18T05:40:11.670Z,102533.47
2022-12-18T05:42:38.622Z,102525.00
2022-12-18T05:45:06.537Z,102532.50
2022-12-18T05:47:33.482Z,102524.88
2022-12-18T05:50:00.272Z,102514.72
2022-12-18T05:52:26.861Z,102523.09
2022-12-18T05:54:53.423Z,102517.91
2022-12-18T05:57:20.044Z,102522.22
2022-12-18T05:59:46.655Z,102514.69
2022-12-18T06:02:13.431Z,102519.75
2022-12-18T06:04:40.100Z,102531.72
2022-12-18T06:07:06.951Z,102531.91
2022-12-18T06:09:33.588Z,102524.31
2022-12-18T06:12:00.212Z,102528.41
2022-12-18T06:14:26.899Z,102514.78
2022-12-18T06:16:53.585Z,102508.81
2022-12-18T06:19:20.271Z,102511.38
2022-12-18T06:21:46.835Z,102515.69
2022-12-18T06:24:13.393Z,102507.38
2022-12-18T06:26:40.336Z,102505.69
2022-12-18T06:29:07.191Z,102507.41
2022-12-18T06:31:33.891Z,102510.75
2022-12-18T06:34:03.976Z,102507.34
2022-12-18T06:36:30.716Z,102499.72
2022-12-18T06:38:58.552Z,102483.59
2022-12-18T06:41:25.243Z,102481.75
2022-12-18T06:43:55.558Z,102484.38
2022-12-18T06:46:28.125Z,102490.25
2022-12-18T06:48:54.903Z,102490.19
2022-12-18T06:51:23.492Z,102487.66
2022-12-18T06:53:53.394Z,102485.81
2022-12-18T06:56:20.367Z,102479.84
2022-12-18T06:58:47.067Z,102477.44
2022-12-18T07:01:14.393Z,102485.91
2022-12-18T07:03:42.959Z,102475.81
2022-12-18T07:06:18.681Z,102478.28
2022-12-18T07:08:46.724Z,102473.19
2022-12-18T07:11:14.267Z,102470.81
2022-12-18T07:13:41.287Z,102460.63
2022-12-18T07:16:24.605Z,102456.28
2022-12-18T07:18:51.670Z,102440.88
2022-12-18T07:21:20.603Z,102434.13
2022-12-18T07:23:48.934Z,102434.91
2022-12-18T07:26:18.404Z,102425.66
2022-12-18T07:28:45.002Z,102428.16
2022-12-18T07:31:21.536Z,102426.41
2022-12-18T07:33:49.347Z,102413.75
2022-12-18T07:36:16.480Z,102405.19
2022-12-18T07:38:43.590Z,102407.72
2022-12-18T07:41:13.495Z,102406.09
2022-12-18T07:43:42.353Z,102396.66
2022-12-18T07:46:10.635Z,102389.91
2022-12-18T07:48:39.387Z,102383.19
2022-12-18T07:51:07.634Z,102392.44
2022-12-18T07:53:36.639Z,102399.03
2022-12-18T07:56:26.473Z,102399.84
2022-12-18T07:58:53.490Z,102404.88
2022-12-18T08:01:20.240Z,102408.22
2022-12-18T08:03:48.215Z,102409.81
2022-12-18T08:06:15.173Z,102404.88
2022-12-18T08:08:43.178Z,102400.50
2022-12-18T08:11:10.009Z,102394.47
2022-12-18T08:13:37.182Z,102408.69
2022-12-18T08:16:07.133Z,102401.00
2022-12-18T08:18:35.409Z,102396.69
2022-12-18T08:21:19.383Z,102405.94
2022-12-18T08:23:48.824Z,102390.56
2022-12-18T08:26:16.854Z,102400.63
2022-12-18T08:28:43.888Z,102406.47
2022-12-18T08:31:11.530Z,102403.09
2022-12-18T08:33:40.594Z,102401.28
2022-12-18T08:36:11.204Z,102381.72
2022-12-18T08:38:38.128Z,102383.19
2022-12-18T08:41:07.502Z,102378.97
2022-12-18T08:43:53.270Z,102375.44
2022-12-18T08:46:21.681Z,102377.66
2022-12-18T08:48:48.364Z,102373.31
2022-12-18T08:51:17.423Z,102369.91
2022-12-18T08:53:45.479Z,102372.19
2022-12-18T08:56:12.844Z,102377.22
2022-12-18T08:58:42.992Z,102391.41
2022-12-18T09:01:12.924Z,102399.88
2022-12-18T09:03:40.887Z,102412.41
2022-12-18T09:06:08.632Z,102413.09
2022-12-18T09:08:39.058Z,102423.06
2022-12-18T09:11:11.624Z,102406.84
2022-12-18T09:13:38.445Z,102403.28
2022-12-18T09:16:05.821Z,102396.25
2022-12-18T09:18:32.521Z,102386.03
2022-12-18T09:20:59.131Z,102376.41
2022-12-18T09:23:25.983Z,102373.81
2022-12-18T09:25:52.992Z,102379.63
2022-12-18T09:28:20.220Z,102374.69
2022-12-18T09:30:50.241Z,102369.19
2022-12-18T09:33:18.405Z,102373.28
2022-12-18T09:35:48.498Z,102358.75
2022-12-18T09:38:18.958Z,102356.03
2022-12-18T09:41:16.790Z,102354.16
2022-12-18T09:43:50.936Z,102358.13
2022-12-18T09:46:23.819Z,102362.88
2022-12-18T09:48:54.580Z,102356.16
2022-12-18T09:51:27.284Z,102345.72
2022-12-18T09:54:02.098Z,102361.53
2022-12-18T09:56:35.876Z,102361.94
2022-12-18T09:59:06.319Z,102363.53
2022-12-18T10:01:43.195Z,102361.63
2022-12-18T10:04:11.456Z,102358.84
2022-12-18T10:07:09.094Z,102366.13
2022-12-18T10:09:44.306Z,102364.25
2022-12-18T10:12:24.905Z,102364.03
2022-12-18T10:14:59.102Z,102362.03
2022-12-18T10:17:55.629Z,102354.28
2022-12-18T10:20:38.526Z,102347.28
2022-12-18T10:23:21.920Z,102325.09
2022-12-18T10:26:07.758Z,102328.38
2022-12-18T10:28:38.017Z,102318.94
2022-12-18T10:31:07.396Z,102297.63
2022-12-18T10:33:35.053Z,102300.63
2022-12-18T10:36:01.772Z,102288.53
2022-12-18T10:38:40.520Z,102292.59
2022-12-18T10:41:18.393Z,102298.34
2022-12-18T10:43:45.249Z,102288.69
2022-12-18T10:46:12.157Z,102292.50
2022-12-18T10:48:51.902Z,102288.91
2022-12-18T10:51:23.494Z,102291.31
2022-12-18T10:54:06.622Z,102290.31
2022-12-18T10:56:38.615Z,102274.00
2022-12-18T10:59:12.824Z,102279.47
2022-12-18T11:01:58.272Z,102281.16
2022-12-18T11:04:31.248Z,102287.81
2022-12-18T11:07:01.415Z,102285.84
2022-12-18T11:09:30.648Z,102284.75
2022-12-18T11:12:03.440Z,102279.38
2022-12-18T11:14:47.056Z,102276.72
2022-12-18T11:17:27.263Z,102265.53
2022-12-18T11:19:59.655Z,102255.88
2022-12-18T11:22:33.000Z,102254.94
2022-12-18T11:27:59.173Z,102265.31
2022-12-18T11:30:32.715Z,102248.78
2022-12-18T11:33:19.335Z,102270.88
2022-12-18T11:35:59.202Z,102258.50
2022-12-18T11:38:30.686Z,102264.41
2022-12-18T11:41:05.005Z,102263.63
2022-12-18T11:44:11.411Z,102251.47
2022-12-18T11:46:47.848Z,102237.94
2022-12-18T11:49:48.609Z,102238.78
2022-12-18T11:52:26.219Z,102225.59
2022-12-18T11:54:56.221Z,102230.59
2022-12-18T11:57:31.938Z,102218.47
2022-12-18T12:00:11.157Z,102219.44
2022-12-18T12:02:52.332Z,102218.28
2022-12-18T12:05:37.018Z,102207.47
2022-12-18T12:08:18.798Z,102204.16
2022-12-18T12:10:45.379Z,102199.78
2022-12-18T12:13:41.448Z,102198.00
2022-12-18T12:16:26.088Z,102194.66
2022-12-18T12:19:21.238Z,102193.03
2022-12-18T12:22:02.154Z,102181.19
2022-12-18T12:24:50.484Z,102167.63
2022-12-18T12:27:17.022Z,102173.06
2022-12-18T12:29:49.770Z,102166.91
2022-12-18T12:32:34.033Z,102166.78
2022-12-18T12:35:09.278Z,102159.09
2022-12-18T12:37:45.988Z,102159.66
2022-12-18T12:40:50.201Z,102153.53
2022-12-18T12:43:27.841Z,102151.81
2022-12-18T12:46:07.958Z,102137.59
2022-12-18T12:48:43.985Z,102148.97
2022-12-18T12:51:17.285Z,102151.44
2022-12-18T12:53:44.533Z,102141.47
2022-12-18T12:56:15.712Z,102136.22
2022-12-18T12:59:04.263Z,102147.91
2022-12-18T13:01:53.505Z,102136.75
2022-12-18T13:04:49.492Z,102132.59
2022-12-18T13:07:42.525Z,102130.84
2022-12-18T13:10:12.338Z,102132.16
2022-12-18T13:12:57.776Z,102128.56
2022-12-18T13:15:31.127Z,102132.00
2022-12-18T13:18:06.537Z,102134.66
2022-12-18T13:20:41.904Z,102136.38
2022-12-18T13:23:41.377Z,102132.16
2022-12-18T13:26:09.272Z,102118.41
2022-12-18T13:28:48.011Z,102119.03
2022-12-18T13:31:15.548Z,102116.00
2022-12-18T13:34:23.854Z,102115.81
2022-12-18T13:36:35.249Z,102111.63
2022-12-18T13:39:18.428Z,102119.03
2022-12-18T13:41:51.350Z,102107.41
2022-12-18T13:44:35.965Z,102107.13
2022-12-18T13:47:27.553Z,102096.69
2022-12-18T13:49:56.004Z,102088.09
2022-12-18T13:52:26.309Z,102083.88
2022-12-18T13:54:56.525Z,102087.88
2022-12-18T13:57:34.075Z,102085.22
2022-12-18T14:00:25.383Z,102090.22
2022-12-18T14:02:52.525Z,102085.31
2022-12-18T14:05:26.866Z,102081.03
2022-12-18T14:07:55.545Z,102076.03
2022-12-18T14:10:45.567Z,102080.03
2022-12-18T14:13:12.288Z,102081.16
2022-12-18T14:15:48.881Z,102079.97
2022-12-18T14:18:15.500Z,102080.78
2022-12-18T14:20:49.241Z,102071.34
2022-12-18T14:23:46.119Z,102071.66
2022-12-18T14:26:25.469Z,102067.22
2022-12-18T14:28:52.626Z,102078.97
2022-12-18T14:31:25.709Z,102080.56
2022-12-18T14:33:53.869Z,102067.88
2022-12-18T14:36:26.137Z,102071.13
2022-12-18T14:38:55.532Z,102075.50
2022-12-18T14:41:23.166Z,102074.66
2022-12-18T14:43:51.867Z,102078.13
2022-12-18T14:46:36.159Z,102079.81
2022-12-18T14:49:07.018Z,102069.53
2022-12-18T14:51:35.613Z,102066.19
2022-12-18T14:54:08.984Z,102072.03
2022-12-18T14:56:43.775Z,102052.78
2022-12-18T14:59:24.551Z,102056.88
2022-12-18T15:02:00.857Z,102054.97
2022-12-18T15:04:36.065Z,102053.31
2022-12-18T15:07:12.238Z,102050.75
2022-12-18T15:09:40.575Z,102041.56
2022-12-18T15:12:25.577Z,102023.03
2022-12-18T15:14:52.411Z,102035.56
2022-12-18T15:17:24.171Z,102030.75
2022-12-18T15:20:01.552Z,102024.16
2022-12-18T15:22:35.527Z,102027.66
2022-12-18T15:25:06.235Z,102019.28
2022-12-18T15:27:36.866Z,102028.75
2022-12-18T15:30:09.686Z,102026.06
2022-12-18T15:32:38.421Z,102015.81
2022-12-18T15:35:16.348Z,102013.00
2022-12-18T15:37:43.748Z,102012.09
2022-12-18T15:40:18.859Z,102002.97
2022-12-18T15:43:07.515Z,102008.72
2022-12-18T15:45:34.598Z,102010.22
2022-12-18T15:48:01.307Z,102000.84
2022-12-18T15:50:28.162Z,102008.53
2022-12-18T15:52:56.522Z,102008.25
2022-12-18T15:55:43.609Z,102005.81
2022-12-18T15:58:12.840Z,102009.97
2022-12-18T16:00:41.275Z,102000.22
2022-12-18T16:03:08.476Z,102001.88
2022-12-18T16:05:35.384Z,101996.16
2022-12-18T16:08:02.330Z,101983.16
2022-12-18T16:10:32.657Z,101981.16
2022-12-18T16:12:59.284Z,101967.28
2022-12-18T16:15:26.132Z,101963.06
2022-12-18T16:17:53.167Z,101962.72
2022-12-18T16:20:22.425Z,101956.69
2022-12-18T16:22:49.658Z,101960.91
2022-12-18T16:25:22.856Z,101955.19
2022-12-18T16:27:50.163Z,101965.28
2022-12-18T16:30:22.167Z,101961.69
2022-12-18T16:32:51.876Z,101957.53
2022-12-18T16:35:18.689Z,101956.22
2022-12-18T16:37:45.770Z,101949.56
2022-12-18T16:40:15.390Z,101934.97
2022-12-18T16:42:44.207Z,101939.97
2022-12-18T16:45:18.075Z,101937.00
2022-12-18T16:47:45.264Z,101933.50
2022-12-18T16:50:12.115Z,101944.53
2022-12-18T16:52:39.519Z,101930.22
2022-12-18T16:55:06.420Z,101945.22
2022-12-18T16:57:33.459Z,101938.31
2022-12-18T17:00:05.213Z,101938.25
2022-12-18T17:02:32.961Z,101931.22
2022-12-18T17:05:00.383Z,101932.69
2022-12-18T17:07:28.539Z,101926.66
2022-12-18T17:09:56.814Z,101939.31
2022-12-18T17:12:23.684Z,101945.31
2022-12-18T17:14:50.703Z,101932.88
2022-12-18T17:17:21.513Z,101939.00
2022-12-18T17:19:49.854Z,101945.63
2022-12-18T17:22:16.515Z,101935.13
2022-12-18T17:24:43.157Z,101931.97
2022-12-18T17:27:09.676Z,101938.22
2022-12-18T17:29:37.655Z,101927.13
2022-12-18T17:32:06.720Z,101935.03
2022-12-18T17:34:33.398Z,101932.09
2022-12-18T17:37:00.565Z,101924.97
2022-12-18T17:39:31.174Z,101921.75
2022-12-18T17:42:01.593Z,101926.06
2022-12-18T17:44:28.345Z,101926.81
2022-12-18T17:46:55.144Z,101930.47
2022-12-18T17:49:21.802Z,101916.75
2022-12-18T17:51:49.201Z,101929.03
2022-12-18T17:54:16.369Z,101926.72
2022-12-18T17:56:43.355Z,101924.97
2022-12-18T17:59:11.018Z,101928.97
2022-12-18T18:01:44.108Z,101929.03
2022-12-18T18:04:12.574Z,101923.72
2022-12-18T18:06:39.589Z,101922.81
2022-12-18T18:09:08.638Z,101927.88
2022-12-18T18:12:00.622Z,101926.13
2022-12-18T18:14:30.244Z,101925.69
2022-12-18T18:16:56.902Z,101921.38
2022-12-18T18:19:27.445Z,101917.16
2022-12-18T18:21:54.633Z,101920.28
2022-12-18T18:24:23.613Z,101919.28
2022-12-18T18:26:50.801Z,101916.72
2022-12-18T18:29:26.231Z,101912.56
2022-12-18T18:31:54.279Z,101907.84
2022-12-18T18:34:24.344Z,101892.66
2022-12-18T18:36:51.663Z,101906.00
2022-12-18T18:39:19.091Z,101905.25
2022-12-18T18:41:47.904Z,101895.44
2022-12-18T18:44:17.107Z,101910.59
2022-12-18T18:46:44.328Z,101909.69
2022-12-18T18:49:11.766Z,101915.50
2022-12-18T18:51:40.434Z,101916.97
2022-12-18T18:54:10.091Z,101924.41
2022-12-18T18:59:29.156Z,101906.69
2022-12-18T19:02:04.332Z,101922.78
2022-12-18T19:04:33.082Z,101919.28
2022-12-18T19:07:00.168Z,101913.50
2022-12-18T19:09:28.104Z,101921.66
2022-12-18T19:12:14.326Z,101917.59
2022-12-18T19:14:41.433Z,101921.00
2022-12-18T19:17:08.312Z,101907.13
2022-12-18T19:19:35.160Z,101907.88
2022-12-18T19:22:02.132Z,101920.91
2022-12-18T19:24:32.012Z,101914.38
2022-12-18T19:26:59.000Z,101915.09
2022-12-18T19:29:25.758Z,101905.06
2022-12-18T19:31:52.666Z,101905.16
2022-12-18T19:34:19.402Z,101907.84
2022-12-18T19:36:46.540Z,101915.56
2022-12-18T19:39:15.827Z,101906.75
2022-12-18T19:41:43.122Z,101909.56
2022-12-18T19:44:16.778Z,101901.84
2022-12-18T19:46:46.016Z,101908.56
2022-12-18T19:49:17.696Z,101922.16
2022-12-18T19:51:45.640Z,101927.41
2022-12-18T19:54:16.914Z,101930.47
2022-12-18T19:56:44.287Z,101916.38
2022-12-18T19:59:10.889Z,101923.00
2022-12-18T20:01:37.837Z,101911.03
2022-12-18T20:04:05.049Z,101924.00
2022-12-18T20:06:46.708Z,101913.22
2022-12-18T20:09:13.394Z,101915.69
2022-12-18T20:11:41.613Z,101915.88
2022-12-18T20:14:10.134Z,101912.41
2022-12-18T20:16:36.925Z,101916.47
2022-12-18T20:19:04.304Z,101914.38
2022-12-18T20:21:31.268Z,101907.09
2022-12-18T20:24:01.116Z,101912.13
2022-12-18T20:26:29.278Z,101897.28
2022-12-18T20:28:56.654Z,101893.97
2022-12-18T20:31:23.968Z,101889.38
2022-12-18T20:33:52.163Z,101879.84
2022-12-18T20:36:23.460Z,101889.47
2022-12-18T20:38:57.103Z,101881.94
2022-12-18T20:41:25.793Z,101873.88
2022-12-18T20:43:54.366Z,101871.88
2022-12-18T20:46:21.424Z,101863.59
2022-12-18T20:48:50.070Z,101856.25
2022-12-18T20:51:20.185Z,101864.06
2022-12-18T20:53:47.730Z,101863.41
2022-12-18T20:56:22.129Z,101858.06
2022-12-18T20:58:50.545Z,101854.94
2022-12-18T21:01:23.305Z,101857.69
2022-12-18T21:03:50.853Z,101852.91
2022-12-18T21:06:19.689Z,101854.75
2022-12-18T21:08:46.185Z,101845.66
2022-12-18T21:11:38.742Z,101841.16
2022-12-18T21:14:13.144Z,101847.06
2022-12-18T21:16:40.368Z,101847.88
2022-12-18T21:19:06.965Z,101849.81
2022-12-18T21:21:35.875Z,101847.22
2022-12-18T21:24:07.187Z,101840.44
2022-12-18T21:26:33.960Z,101836.94
2022-12-18T21:29:03.757Z,101832.81
2022-12-18T21:31:35.174Z,101831.53
2022-12-18T21:34:04.005Z,101826.75
2022-12-18T21:36:33.616Z,101828.50
2022-12-18T21:39:01.532Z,101818.03
2022-12-18T21:41:47.514Z,101812.06
2022-12-18T21:44:17.590Z,101806.06
2022-12-18T21:46:52.827Z,101811.06
2022-12-18T21:49:23.135Z,101803.22
2022-12-18T21:51:52.037Z,101797.19
2022-12-18T21:54:20.035Z,101793.75
2022-12-18T21:56:49.776Z,101778.16
2022-12-18T21:59:40.265Z,101778.31
2022-12-18T22:02:21.482Z,101779.97
2022-12-18T22:04:48.731Z,101776.19
2022-12-18T22:07:16.695Z,101776.09
2022-12-18T22:09:43.484Z,101766.66
2022-12-18T22:12:13.310Z,101759.03
2022-12-18T22:14:40.015Z,101757.06
2022-12-18T22:17:06.867Z,101750.09
2022-12-18T22:19:38.106Z,101744.69
2022-12-18T22:22:09.520Z,101738.06
2022-12-18T22:24:35.999Z,101727.59
2022-12-18T22:27:02.666Z,101736.78
2022-12-18T22:29:50.756Z,101726.81
2022-12-18T22:32:22.237Z,101716.72
2022-12-18T22:35:05.289Z,101721.09
2022-12-18T22:37:34.110Z,101717.69
2022-12-18T22:40:03.151Z,101709.88
2022-12-18T22:42:31.698Z,101699.97
2022-12-18T22:45:00.563Z,101714.94
2022-12-18T22:47:30.007Z,101725.88
2022-12-18T22:49:57.936Z,101716.81
2022-12-18T22:52:25.294Z,101712.19
2022-12-18T22:54:53.246Z,101701.91
2022-12-18T22:57:22.078Z,101701.19
2022-12-18T22:59:49.587Z,101691.69
2022-12-18T23:02:17.884Z,101676.84
2022-12-18T23:04:44.999Z,101670.47
2022-12-18T23:07:12.095Z,101674.59
2022-12-18T23:09:39.560Z,101666.53
2022-12-18T23:12:06.609Z,101671.50
2022-12-18T23:14:33.423Z,101665.81
2022-12-18T23:17:01.351Z,101653.78
2022-12-18T23:19:27.914Z,101668.81
2022-12-18T23:21:58.835Z,101662.75
2022-12-18T23:24:26.661Z,101663.16
2022-12-18T23:26:53.323Z,101653.81
2022-12-18T23:29:20.560Z,101647.63
2022-12-18T23:31:47.521Z,101640.34
2022-12-18T23:34:14.766Z,101630.13
2022-12-18T23:36:45.577Z,101620.75
2022-12-18T23:39:15.632Z,101613.03
2022-12-18T23:41:59.459Z,101621.78
2022-12-18T23:44:26.390Z,101605.63
2022-12-18T23:46:53.409Z,101603.34
2022-12-18T23:49:20.348Z,101590.47
2022-12-18T23:51:47.155Z,101579.03
2022-12-18T23:54:13.741Z,101581.91
2022-12-18T23:56:40.359Z,101587.47
2022-12-18T23:59:07.089Z,101590.97
